sensor_id;sensor_type;location;lat;lon;timestamp;pressure;altitude;pressure_sealevel;temperature;humidity
43707;BME280;61348;53.392;-6.248;2024-02-21T00:01:24;100439.63;;;7.25;100.00
43707;BME280;61348;53.392;-6.248;2024-02-21T00:03:51;100429.91;;;7.28;100.00
43707;BME280;61348;53.392;-6.248;2024-02-21T00:06:19;100416.16;;;7.28;100.00
43707;BME280;61348;53.392;-6.248;2024-02-21T00:08:46;100396.06;;;7.27;100.00
43707;BME280;61348;53.392;-6.248;2024-02-21T00:11:14;100360.75;;;7.29;100.00
43707;BME280;61348;53.392;-6.248;2024-02-21T00:13:41;100353.28;;;7.30;100.00
43707;BME280;61348;53.392;-6.248;2024-02-21T00:16:09;100343.56;;;7.32;100.00
43707;BME280;61348;53.392;-6.248;2024-02-21T00:18:37;100335.75;;;7.34;100.00
43707;BME280;61348;53.392;-6.248;2024-02-21T00:21:05;100326.03;;;7.37;100.00
43707;BME280;61348;53.392;-6.248;2024-02-21T00:23:32;100315.16;;;7.41;100.00
43707;BME280;61348;53.392;-6.248;2024-02-21T00:26:00;100303.34;;;7.40;100.00
43707;BME280;61348;53.392;-6.248;2024-02-21T00:28:27;100313.22;;;7.41;100.00
43707;BME280;61348;53.392;-6.248;2024-02-21T00:30:54;100304.97;;;7.41;100.00
43707;BME280;61348;53.392;-6.248;2024-02-21T00:33:22;100298.28;;;7.42;100.00
43707;BME280;61348;53.392;-6.248;2024-02-21T00:35:49;100304.59;;;7.43;100.00
43707;BME280;61348;53.392;-6.248;2024-02-21T00:38:17;100302.31;;;7.45;100.00
43707;BME280;61348;53.392;-6.248;2024-02-21T00:40:44;100300.84;;;7.47;100.00
43707;BME280;61348;53.392;-6.248;2024-02-21T00:43:11;100283.66;;;7.50;100.00
43707;BME280;61348;53.392;-6.248;2024-02-21T00:45:39;100271.50;;;7.51;100.00
43707;BME280;61348;53.392;-6.248;2024-02-21T00:48:07;100260.94;;;7.53;100.00
43707;BME280;61348;53.392;-6.248;2024-02-21T00:50:34;100252.47;;;7.58;100.00
43707;BME280;61348;53.392;-6.248;2024-02-21T00:53:01;100237.56;;;7.59;100.00
43707;BME280;61348;53.392;-6.248;2024-02-21T00:55:29;100239.16;;;7.60;100.00
43707;BME280;61348;53.392;-6.248;2024-02-21T00:57:56;100231.38;;;7.62;100.00
43707;BME280;61348;53.392;-6.248;2024-02-21T01:00:24;100219.66;;;7.65;100.00
43707;BME280;61348;53.392;-6.248;2024-02-21T01:02:51;100225.00;;;7.70;100.00
43707;BME280;61348;53.392;-6.248;2024-02-21T01:05:20;100212.94;;;7.75;100.00
43707;BME280;61348;53.392;-6.248;2024-02-21T01:07:47;100209.97;;;7.80;100.00
43707;BME280;61348;53.392;-6.248;2024-02-21T01:10:15;100193.56;;;7.83;100.00
43707;BME280;61348;53.392;-6.248;2024-02-21T01:12:42;100185.09;;;7.88;100.00
43707;BME280;61348;53.392;-6.248;2024-02-21T01:15:10;100184.41;;;7.91;100.00
43707;BME280;61348;53.392;-6.248;2024-02-21T01:17:38;100175.13;;;7.96;100.00
43707;BME280;61348;53.392;-6.248;2024-02-21T01:20:08;100153.88;;;7.96;100.00
43707;BME280;61348;53.392;-6.248;2024-02-21T01:22:35;100146.88;;;7.99;100.00
43707;BME280;61348;53.392;-6.248;2024-02-21T01:25:03;100142.13;;;7.99;100.00
43707;BME280;61348;53.392;-6.248;2024-02-21T01:27:30;100142.63;;;8.02;100.00
43707;BME280;61348;53.392;-6.248;2024-02-21T01:29:58;100137.44;;;8.00;100.00
43707;BME280;61348;53.392;-6.248;2024-02-21T01:32:25;100128.84;;;8.02;100.00
43707;BME280;61348;53.392;-6.248;2024-02-21T01:34:52;100120.22;;;8.03;100.00
43707;BME280;61348;53.392;-6.248;2024-02-21T01:37:20;100110.81;;;8.04;100.00
43707;BME280;61348;53.392;-6.248;2024-02-21T01:39:47;100089.56;;;8.05;100.00
43707;BME280;61348;53.392;-6.248;2024-02-21T01:42:16;100085.19;;;8.04;100.00
43707;BME280;61348;53.392;-6.248;2024-02-21T01:44:43;100078.53;;;8.05;100.00
43707;BME280;61348;53.392;-6.248;2024-02-21T01:47:11;100073.81;;;8.05;100.00
43707;BME280;61348;53.392;-6.248;2024-02-21T01:49:41;100060.03;;;8.05;100.00
43707;BME280;61348;53.392;-6.248;2024-02-21T01:52:09;100055.78;;;8.08;100.00
43707;BME280;61348;53.392;-6.248;2024-02-21T01:54:39;100040.03;;;8.08;100.00
43707;BME280;61348;53.392;-6.248;2024-02-21T01:57:06;100025.13;;;8.09;100.00
43707;BME280;61348;53.392;-6.248;2024-02-21T01:59:34;100017.19;;;8.08;100.00
43707;BME280;61348;53.392;-6.248;2024-02-21T02:02:03;100005.69;;;8.06;100.00
43707;BME280;61348;53.392;-6.248;2024-02-21T02:04:30;99987.09;;;8.03;100.00
43707;BME280;61348;53.392;-6.248;2024-02-21T02:06:59;99968.03;;;7.97;100.00
43707;BME280;61348;53.392;-6.248;2024-02-21T02:09:30;99949.44;;;7.94;100.00
43707;BME280;61348;53.392;-6.248;2024-02-21T02:11:57;99942.66;;;7.92;100.00
43707;BME280;61348;53.392;-6.248;2024-02-21T02:14:26;99935.88;;;7.89;100.00
43707;BME280;61348;53.392;-6.248;2024-02-21T02:16:53;99918.09;;;7.87;100.00
43707;BME280;61348;53.392;-6.248;2024-02-21T02:19:21;99920.03;;;7.86;100.00
43707;BME280;61348;53.392;-6.248;2024-02-21T02:21:55;99915.69;;;7.85;100.00
43707;BME280;61348;53.392;-6.248;2024-02-21T02:24:25;99886.06;;;7.82;100.00
43707;BME280;61348;53.392;-6.248;2024-02-21T02:26:53;99881.25;;;7.79;100.00
43707;BME280;61348;53.392;-6.248;2024-02-21T02:29:20;99876.09;;;7.78;100.00
43707;BME280;61348;53.392;-6.248;2024-02-21T02:31:49;99873.69;;;7.76;100.00
43707;BME280;61348;53.392;-6.248;2024-02-21T02:34:16;99856.34;;;7.76;100.00
43707;BME280;61348;53.392;-6.248;2024-02-21T02:36:44;99829.97;;;7.75;100.00
43707;BME280;61348;53.392;-6.248;2024-02-21T02:39:11;99829.16;;;7.74;100.00
43707;BME280;61348;53.392;-6.248;2024-02-21T02:41:38;99823.19;;;7.72;100.00
43707;BME280;61348;53.392;-6.248;2024-02-21T02:44:06;99811.81;;;7.74;100.00
43707;BME280;61348;53.392;-6.248;2024-02-21T02:46:33;99781.50;;;7.74;100.00
43707;BME280;61348;53.392;-6.248;2024-02-21T02:49:01;99774.06;;;7.74;100.00
43707;BME280;61348;53.392;-6.248;2024-02-21T02:51:29;99770.16;;;7.75;100.00
43707;BME280;61348;53.392;-6.248;2024-02-21T02:53:56;99754.06;;;7.77;100.00
43707;BME280;61348;53.392;-6.248;2024-02-21T02:56:24;99750.16;;;7.78;100.00
43707;BME280;61348;53.392;-6.248;2024-02-21T02:58:51;99732.47;;;7.79;100.00
43707;BME280;61348;53.392;-6.248;2024-02-21T03:01:19;99732.91;;;7.81;100.00
43707;BME280;61348;53.392;-6.248;2024-02-21T03:03:46;99697.91;;;7.82;100.00
43707;BME280;61348;53.392;-6.248;2024-02-21T03:06:14;99685.75;;;7.83;100.00
43707;BME280;61348;53.392;-6.248;2024-02-21T03:08:42;99683.78;;;7.83;100.00
43707;BME280;61348;53.392;-6.248;2024-02-21T03:11:10;99670.00;;;7.83;100.00
43707;BME280;61348;53.392;-6.248;2024-02-21T03:13:38;99660.56;;;7.84;100.00
43707;BME280;61348;53.392;-6.248;2024-02-21T03:16:06;99655.88;;;7.85;100.00
43707;BME280;61348;53.392;-6.248;2024-02-21T03:18:33;99633.03;;;7.84;100.00
43707;BME280;61348;53.392;-6.248;2024-02-21T03:21:00;99620.84;;;7.85;100.00
43707;BME280;61348;53.392;-6.248;2024-02-21T03:23:28;99609.13;;;7.88;100.00
43707;BME280;61348;53.392;-6.248;2024-02-21T03:25:55;99589.47;;;7.90;100.00
43707;BME280;61348;53.392;-6.248;2024-02-21T03:28:22;99577.63;;;7.89;100.00
43707;BME280;61348;53.392;-6.248;2024-02-21T03:30:50;99561.91;;;7.90;100.00
43707;BME280;61348;53.392;-6.248;2024-02-21T03:33:17;99548.94;;;7.90;100.00
43707;BME280;61348;53.392;-6.248;2024-02-21T03:35:44;99537.91;;;7.90;100.00
43707;BME280;61348;53.392;-6.248;2024-02-21T03:38:12;99541.47;;;7.91;100.00
43707;BME280;61348;53.392;-6.248;2024-02-21T03:40:39;99535.59;;;7.92;100.00
43707;BME280;61348;53.392;-6.248;2024-02-21T03:43:06;99522.25;;;7.94;100.00
43707;BME280;61348;53.392;-6.248;2024-02-21T03:45:34;99518.78;;;7.97;100.00
43707;BME280;61348;53.392;-6.248;2024-02-21T03:48:01;99508.19;;;7.99;100.00
43707;BME280;61348;53.392;-6.248;2024-02-21T03:50:29;99501.19;;;8.02;100.00
43707;BME280;61348;53.392;-6.248;2024-02-21T03:52:57;99468.19;;;8.06;100.00
43707;BME280;61348;53.392;-6.248;2024-02-21T03:55:24;99452.53;;;8.10;100.00
43707;BME280;61348;53.392;-6.248;2024-02-21T03:57:52;99439.19;;;8.12;100.00
43707;BME280;61348;53.392;-6.248;2024-02-21T04:00:19;99428.25;;;8.15;100.00
43707;BME280;61348;53.392;-6.248;2024-02-21T04:02:47;99421.94;;;8.15;100.00
43707;BME280;61348;53.392;-6.248;2024-02-21T04:05:16;99418.00;;;8.16;100.00
43707;BME280;61348;53.392;-6.248;2024-02-21T04:07:43;99398.69;;;8.16;100.00
43707;BME280;61348;53.392;-6.248;2024-02-21T04:10:11;99381.00;;;8.17;100.00
43707;BME280;61348;53.392;-6.248;2024-02-21T04:12:39;99370.00;;;8.17;100.00
43707;BME280;61348;53.392;-6.248;2024-02-21T04:15:06;99363.66;;;8.16;100.00
43707;BME280;61348;53.392;-6.248;2024-02-21T04:17:34;99340.81;;;8.16;100.00
43707;BME280;61348;53.392;-6.248;2024-02-21T04:20:03;99328.22;;;8.15;100.00
43707;BME280;61348;53.392;-6.248;2024-02-21T04:22:33;99335.31;;;8.16;100.00
43707;BME280;61348;53.392;-6.248;2024-02-21T04:25:01;99318.75;;;8.16;100.00
43707;BME280;61348;53.392;-6.248;2024-02-21T04:27:28;99305.44;;;8.18;100.00
43707;BME280;61348;53.392;-6.248;2024-02-21T04:29:55;99298.75;;;8.19;100.00
43707;BME280;61348;53.392;-6.248;2024-02-21T04:32:23;99277.13;;;8.21;100.00
43707;BME280;61348;53.392;-6.248;2024-02-21T04:34:50;99269.28;;;8.23;100.00
43707;BME280;61348;53.392;-6.248;2024-02-21T04:37:18;99269.72;;;8.25;100.00
43707;BME280;61348;53.392;-6.248;2024-02-21T04:39:46;99259.50;;;8.25;100.00
43707;BME280;61348;53.392;-6.248;2024-02-21T04:42:13;99250.88;;;8.27;100.00
43707;BME280;61348;53.392;-6.248;2024-02-21T04:44:40;99239.13;;;8.30;100.00
43707;BME280;61348;53.392;-6.248;2024-02-21T04:47:08;99226.94;;;8.31;100.00
43707;BME280;61348;53.392;-6.248;2024-02-21T04:49:35;99219.09;;;8.33;100.00
43707;BME280;61348;53.392;-6.248;2024-02-21T04:52:03;99204.91;;;8.34;100.00
43707;BME280;61348;53.392;-6.248;2024-02-21T04:54:31;99191.59;;;8.36;100.00
43707;BME280;61348;53.392;-6.248;2024-02-21T04:56:58;99182.56;;;8.39;100.00
43707;BME280;61348;53.392;-6.248;2024-02-21T04:59:25;99172.31;;;8.40;100.00
43707;BME280;61348;53.392;-6.248;2024-02-21T05:01:53;99164.47;;;8.42;100.00
43707;BME280;61348;53.392;-6.248;2024-02-21T05:04:20;99145.22;;;8.45;100.00
43707;BME280;61348;53.392;-6.248;2024-02-21T05:06:47;99134.28;;;8.49;100.00
43707;BME280;61348;53.392;-6.248;2024-02-21T05:09:15;99104.34;;;8.51;100.00
43707;BME280;61348;53.392;-6.248;2024-02-21T05:11:42;99103.63;;;8.54;100.00
43707;BME280;61348;53.392;-6.248;2024-02-21T05:14:10;99103.22;;;8.55;100.00
43707;BME280;61348;53.392;-6.248;2024-02-21T05:16:38;99093.41;;;8.58;100.00
43707;BME280;61348;53.392;-6.248;2024-02-21T05:19:06;99096.63;;;8.60;100.00
43707;BME280;61348;53.392;-6.248;2024-02-21T05:21:33;99083.25;;;8.62;100.00
43707;BME280;61348;53.392;-6.248;2024-02-21T05:24:00;99069.06;;;8.64;100.00
43707;BME280;61348;53.392;-6.248;2024-02-21T05:26:28;99056.47;;;8.66;100.00
43707;BME280;61348;53.392;-6.248;2024-02-21T05:28:56;99054.16;;;8.68;100.00
43707;BME280;61348;53.392;-6.248;2024-02-21T05:31:23;99049.88;;;8.71;100.00
43707;BME280;61348;53.392;-6.248;2024-02-21T05:33:51;99044.75;;;8.73;100.00
43707;BME280;61348;53.392;-6.248;2024-02-21T05:36:18;99040.03;;;8.73;100.00
43707;BME280;61348;53.392;-6.248;2024-02-21T05:38:45;99025.06;;;8.74;100.00
43707;BME280;61348;53.392;-6.248;2024-02-21T05:41:13;99017.22;;;8.76;100.00
43707;BME280;61348;53.392;-6.248;2024-02-21T05:43:40;99008.56;;;8.78;100.00
43707;BME280;61348;53.392;-6.248;2024-02-21T05:46:08;99008.56;;;8.78;100.00
43707;BME280;61348;53.392;-6.248;2024-02-21T05:48:35;98992.81;;;8.78;100.00
43707;BME280;61348;53.392;-6.248;2024-02-21T05:51:06;98968.38;;;8.80;100.00
43707;BME280;61348;53.392;-6.248;2024-02-21T05:53:33;98952.63;;;8.81;100.00
43707;BME280;61348;53.392;-6.248;2024-02-21T05:56:00;98960.53;;;8.82;100.00
43707;BME280;61348;53.392;-6.248;2024-02-21T05:58:28;98940.03;;;8.83;100.00
43707;BME280;61348;53.392;-6.248;2024-02-21T06:00:56;98937.69;;;8.85;100.00
43707;BME280;61348;53.392;-6.248;2024-02-21T06:03:23;98910.91;;;8.86;100.00
43707;BME280;61348;53.392;-6.248;2024-02-21T06:05:51;98907.75;;;8.87;100.00
43707;BME280;61348;53.392;-6.248;2024-02-21T06:08:18;98887.28;;;8.88;100.00
43707;BME280;61348;53.392;-6.248;2024-02-21T06:10:46;98867.56;;;8.90;100.00
43707;BME280;61348;53.392;-6.248;2024-02-21T06:13:14;98849.84;;;8.91;100.00
43707;BME280;61348;53.392;-6.248;2024-02-21T06:15:42;98852.22;;;8.92;100.00
43707;BME280;61348;53.392;-6.248;2024-02-21T06:18:09;98844.72;;;8.93;100.00
43707;BME280;61348;53.392;-6.248;2024-02-21T06:20:36;98838.47;;;8.96;100.00
43707;BME280;61348;53.392;-6.248;2024-02-21T06:23:06;98821.94;;;8.99;100.00
43707;BME280;61348;53.392;-6.248;2024-02-21T06:25:34;98817.97;;;9.00;100.00
43707;BME280;61348;53.392;-6.248;2024-02-21T06:28:01;98817.22;;;9.03;100.00
43707;BME280;61348;53.392;-6.248;2024-02-21T06:30:29;98791.22;;;9.04;100.00
43707;BME280;61348;53.392;-6.248;2024-02-21T06:32:56;98785.31;;;9.06;100.00
43707;BME280;61348;53.392;-6.248;2024-02-21T06:35:23;98777.81;;;9.06;100.00
43707;BME280;61348;53.392;-6.248;2024-02-21T06:37:54;98763.66;;;9.08;100.00
43707;BME280;61348;53.392;-6.248;2024-02-21T06:40:22;98756.56;;;9.10;100.00
43707;BME280;61348;53.392;-6.248;2024-02-21T06:42:50;98754.22;;;9.12;100.00
43707;BME280;61348;53.392;-6.248;2024-02-21T06:45:17;98746.34;;;9.14;100.00
43707;BME280;61348;53.392;-6.248;2024-02-21T06:47:45;98732.94;;;9.16;100.00
43707;BME280;61348;53.392;-6.248;2024-02-21T06:50:12;98744.41;;;9.18;100.00
43707;BME280;61348;53.392;-6.248;2024-02-21T06:52:39;98722.31;;;9.18;100.00
43707;BME280;61348;53.392;-6.248;2024-02-21T06:55:07;98719.97;;;9.21;100.00
43707;BME280;61348;53.392;-6.248;2024-02-21T06:57:34;98702.63;;;9.24;100.00
43707;BME280;61348;53.392;-6.248;2024-02-21T07:00:02;98703.03;;;9.26;100.00
43707;BME280;61348;53.392;-6.248;2024-02-21T07:02:30;98699.06;;;9.27;100.00
43707;BME280;61348;53.392;-6.248;2024-02-21T07:04:57;98691.63;;;9.31;100.00
43707;BME280;61348;53.392;-6.248;2024-02-21T07:07:24;98690.44;;;9.32;100.00
43707;BME280;61348;53.392;-6.248;2024-02-21T07:09:52;98673.06;;;9.35;100.00
43707;BME280;61348;53.392;-6.248;2024-02-21T07:12:20;98668.75;;;9.37;100.00
43707;BME280;61348;53.392;-6.248;2024-02-21T07:14:48;98660.50;;;9.41;100.00
43707;BME280;61348;53.392;-6.248;2024-02-21T07:17:15;98654.19;;;9.44;100.00
43707;BME280;61348;53.392;-6.248;2024-02-21T07:19:42;98642.38;;;9.47;100.00
43707;BME280;61348;53.392;-6.248;2024-02-21T07:22:10;98631.34;;;9.54;100.00
43707;BME280;61348;53.392;-6.248;2024-02-21T07:24:37;98633.75;;;9.66;100.00
43707;BME280;61348;53.392;-6.248;2024-02-21T07:27:04;98612.06;;;9.75;100.00
43707;BME280;61348;53.392;-6.248;2024-02-21T07:29:32;98614.44;;;9.80;100.00
43707;BME280;61348;53.392;-6.248;2024-02-21T07:32:00;98629.06;;;9.84;100.00
43707;BME280;61348;53.392;-6.248;2024-02-21T07:34:27;98621.97;;;9.90;100.00
43707;BME280;61348;53.392;-6.248;2024-02-21T07:36:55;98612.09;;;9.96;100.00
43707;BME280;61348;53.392;-6.248;2024-02-21T07:39:23;98606.19;;;10.01;100.00
43707;BME280;61348;53.392;-6.248;2024-02-21T07:41:50;98592.38;;;10.05;100.00
43707;BME280;61348;53.392;-6.248;2024-02-21T07:44:17;98590.00;;;10.07;100.00
43707;BME280;61348;53.392;-6.248;2024-02-21T07:46:45;98584.84;;;10.09;100.00
43707;BME280;61348;53.392;-6.248;2024-02-21T07:49:14;98576.19;;;10.10;100.00
43707;BME280;61348;53.392;-6.248;2024-02-21T07:51:42;98557.25;;;10.12;100.00
43707;BME280;61348;53.392;-6.248;2024-02-21T07:54:09;98548.56;;;10.17;100.00
43707;BME280;61348;53.392;-6.248;2024-02-21T07:56:42;98551.72;;;10.19;100.00
43707;BME280;61348;53.392;-6.248;2024-02-21T07:59:10;98558.03;;;10.20;100.00
43707;BME280;61348;53.392;-6.248;2024-02-21T08:01:37;98545.41;;;10.22;100.00
43707;BME280;61348;53.392;-6.248;2024-02-21T08:04:05;98535.94;;;10.23;100.00
43707;BME280;61348;53.392;-6.248;2024-02-21T08:06:33;98555.66;;;10.25;100.00
43707;BME280;61348;53.392;-6.248;2024-02-21T08:09:00;98542.22;;;10.27;100.00
43707;BME280;61348;53.392;-6.248;2024-02-21T08:11:27;98535.91;;;10.30;100.00
43707;BME280;61348;53.392;-6.248;2024-02-21T08:13:55;98543.41;;;10.33;100.00
43707;BME280;61348;53.392;-6.248;2024-02-21T08:16:25;98528.41;;;10.34;100.00
43707;BME280;61348;53.392;-6.248;2024-02-21T08:18:53;98523.25;;;10.36;100.00
43707;BME280;61348;53.392;-6.248;2024-02-21T08:21:21;98500.34;;;10.39;100.00
43707;BME280;61348;53.392;-6.248;2024-02-21T08:23:48;98493.22;;;10.42;100.00
43707;BME280;61348;53.392;-6.248;2024-02-21T08:26:18;98494.78;;;10.47;100.00
43707;BME280;61348;53.392;-6.248;2024-02-21T08:28:46;98498.34;;;10.51;100.00
43707;BME280;61348;53.392;-6.248;2024-02-21T08:31:19;98479.38;;;10.53;100.00
43707;BME280;61348;53.392;-6.248;2024-02-21T08:33:46;98475.41;;;10.54;100.00
43707;BME280;61348;53.392;-6.248;2024-02-21T08:36:19;98488.44;;;10.57;100.00
43707;BME280;61348;53.392;-6.248;2024-02-21T08:38:46;98466.28;;;10.60;100.00
43707;BME280;61348;53.392;-6.248;2024-02-21T08:41:14;98456.03;;;10.61;100.00
43707;BME280;61348;53.392;-6.248;2024-02-21T08:43:41;98451.66;;;10.63;100.00
43707;BME280;61348;53.392;-6.248;2024-02-21T08:46:08;98436.22;;;10.66;100.00
43707;BME280;61348;53.392;-6.248;2024-02-21T08:48:36;98444.91;;;10.68;100.00
43707;BME280;61348;53.392;-6.248;2024-02-21T08:51:03;98439.00;;;10.69;100.00
43707;BME280;61348;53.392;-6.248;2024-02-21T08:53:31;98433.44;;;10.73;100.00
43707;BME280;61348;53.392;-6.248;2024-02-21T08:55:58;98442.53;;;10.77;100.00
43707;BME280;61348;53.392;-6.248;2024-02-21T08:58:26;98438.94;;;10.80;100.00
43707;BME280;61348;53.392;-6.248;2024-02-21T09:00:54;98429.44;;;10.84;100.00
43707;BME280;61348;53.392;-6.248;2024-02-21T09:03:21;98419.53;;;10.87;100.00
43707;BME280;61348;53.392;-6.248;2024-02-21T09:05:49;98427.41;;;10.92;100.00
43707;BME280;61348;53.392;-6.248;2024-02-21T09:08:16;98421.88;;;10.95;100.00
43707;BME280;61348;53.392;-6.248;2024-02-21T09:10:43;98416.28;;;10.99;100.00
43707;BME280;61348;53.392;-6.248;2024-02-21T09:13:11;98417.06;;;11.03;100.00
43707;BME280;61348;53.392;-6.248;2024-02-21T09:15:38;98417.88;;;11.04;100.00
43707;BME280;61348;53.392;-6.248;2024-02-21T09:18:05;98414.28;;;11.07;100.00
43707;BME280;61348;53.392;-6.248;2024-02-21T09:20:33;98427.31;;;11.10;100.00
43707;BME280;61348;53.392;-6.248;2024-02-21T09:23:01;98435.22;;;11.11;100.00
43707;BME280;61348;53.392;-6.248;2024-02-21T09:25:29;98425.69;;;11.12;100.00
43707;BME280;61348;53.392;-6.248;2024-02-21T09:27:57;98426.47;;;11.16;100.00
43707;BME280;61348;53.392;-6.248;2024-02-21T09:30:25;98425.63;;;11.23;100.00
43707;BME280;61348;53.392;-6.248;2024-02-21T09:32:52;98429.16;;;11.30;100.00
43707;BME280;61348;53.392;-6.248;2024-02-21T09:35:20;98442.97;;;11.37;100.00
43707;BME280;61348;53.392;-6.248;2024-02-21T09:37:50;98427.88;;;11.45;100.00
43707;BME280;61348;53.392;-6.248;2024-02-21T09:40:18;98424.66;;;11.50;100.00
43707;BME280;61348;53.392;-6.248;2024-02-21T09:42:47;98421.00;;;11.60;100.00
43707;BME280;61348;53.392;-6.248;2024-02-21T09:45:23;98422.56;;;11.69;100.00
43707;BME280;61348;53.392;-6.248;2024-02-21T09:50:59;98413.75;;;11.81;100.00
43707;BME280;61348;53.392;-6.248;2024-02-21T09:53:27;98416.84;;;11.86;100.00
43707;BME280;61348;53.392;-6.248;2024-02-21T09:55:56;98426.69;;;11.94;100.00
43707;BME280;61348;53.392;-6.248;2024-02-21T09:58:25;98428.97;;;12.03;100.00
43707;BME280;61348;53.392;-6.248;2024-02-21T10:00:54;98413.84;;;12.11;100.00
43707;BME280;61348;53.392;-6.248;2024-02-21T10:03:22;98399.16;;;12.14;100.00
43707;BME280;61348;53.392;-6.248;2024-02-21T10:05:49;98421.78;;;12.12;100.00
43707;BME280;61348;53.392;-6.248;2024-02-21T10:08:19;98429.69;;;12.10;100.00
43707;BME280;61348;53.392;-6.248;2024-02-21T10:10:46;98431.31;;;12.08;100.00
43707;BME280;61348;53.392;-6.248;2024-02-21T10:13:27;98426.97;;;12.07;100.00
43707;BME280;61348;53.392;-6.248;2024-02-21T10:16:21;98442.81;;;12.06;100.00
43707;BME280;61348;53.392;-6.248;2024-02-21T10:18:54;98426.56;;;12.05;100.00
43707;BME280;61348;53.392;-6.248;2024-02-21T10:21:21;98432.19;;;12.01;100.00
43707;BME280;61348;53.392;-6.248;2024-02-21T10:23:50;98438.53;;;11.98;100.00
43707;BME280;61348;53.392;-6.248;2024-02-21T10:26:19;98438.53;;;11.98;100.00
43707;BME280;61348;53.392;-6.248;2024-02-21T10:28:47;98436.13;;;12.00;100.00
43707;BME280;61348;53.392;-6.248;2024-02-21T10:31:23;98436.13;;;12.04;100.00
43707;BME280;61348;53.392;-6.248;2024-02-21T10:33:58;98441.59;;;12.07;100.00
43707;BME280;61348;53.392;-6.248;2024-02-21T10:36:26;98459.81;;;12.12;100.00
43707;BME280;61348;53.392;-6.248;2024-02-21T10:38:55;98455.00;;;12.16;100.00
43707;BME280;61348;53.392;-6.248;2024-02-21T10:41:23;98458.56;;;12.16;100.00
43707;BME280;61348;53.392;-6.248;2024-02-21T10:43:53;98456.59;;;12.17;100.00
43707;BME280;61348;53.392;-6.248;2024-02-21T10:46:23;98463.31;;;12.16;100.00
43707;BME280;61348;53.392;-6.248;2024-02-21T10:49:19;98483.53;;;12.16;100.00
43707;BME280;61348;53.392;-6.248;2024-02-21T10:54:48;98506.16;;;12.15;100.00
43707;BME280;61348;53.392;-6.248;2024-02-21T10:57:19;98476.00;;;12.17;100.00
43707;BME280;61348;53.392;-6.248;2024-02-21T10:59:50;98482.34;;;12.17;100.00
43707;BME280;61348;53.392;-6.248;2024-02-21T11:02:18;98494.63;;;12.20;100.00
43707;BME280;61348;53.392;-6.248;2024-02-21T11:04:48;98491.84;;;12.20;100.00
43707;BME280;61348;53.392;-6.248;2024-02-21T11:07:17;98486.66;;;12.22;100.00
43707;BME280;61348;53.392;-6.248;2024-02-21T11:09:52;98504.50;;;12.21;100.00
43707;BME280;61348;53.392;-6.248;2024-02-21T11:12:20;98507.69;;;12.19;100.00
43707;BME280;61348;53.392;-6.248;2024-02-21T11:14:49;98505.66;;;12.23;100.00
43707;BME280;61348;53.392;-6.248;2024-02-21T11:17:17;98513.53;;;12.29;100.00
43707;BME280;61348;53.392;-6.248;2024-02-21T11:19:45;98534.91;;;12.32;100.00
43707;BME280;61348;53.392;-6.248;2024-02-21T11:22:17;98537.69;;;12.32;100.00
43707;BME280;61348;53.392;-6.248;2024-02-21T11:24:45;98553.16;;;12.29;100.00
43707;BME280;61348;53.392;-6.248;2024-02-21T11:27:19;98536.53;;;12.29;100.00
43707;BME280;61348;53.392;-6.248;2024-02-21T11:29:56;98551.97;;;12.34;100.00
43707;BME280;61348;53.392;-6.248;2024-02-21T11:32:25;98566.22;;;12.36;100.00
43707;BME280;61348;53.392;-6.248;2024-02-21T11:34:58;98564.22;;;12.36;100.00
43707;BME280;61348;53.392;-6.248;2024-02-21T11:37:34;98558.31;;;12.31;100.00
43707;BME280;61348;53.392;-6.248;2024-02-21T11:40:04;98565.13;;;12.23;100.00
43707;BME280;61348;53.392;-6.248;2024-02-21T11:42:35;98571.13;;;12.14;100.00
43707;BME280;61348;53.392;-6.248;2024-02-21T11:45:02;98571.56;;;12.09;100.00
43707;BME280;61348;53.392;-6.248;2024-02-21T11:47:30;98573.56;;;12.05;100.00
43707;BME280;61348;53.392;-6.248;2024-02-21T11:49:57;98568.47;;;12.00;100.00
43707;BME280;61348;53.392;-6.248;2024-02-21T11:52:26;98559.75;;;12.01;100.00
43707;BME280;61348;53.392;-6.248;2024-02-21T11:54:55;98559.69;;;12.05;100.00
43707;BME280;61348;53.392;-6.248;2024-02-21T11:57:32;98561.66;;;12.11;100.00
43707;BME280;61348;53.392;-6.248;2024-02-21T11:59:59;98573.13;;;12.13;100.00
43707;BME280;61348;53.392;-6.248;2024-02-21T12:02:37;98559.59;;;12.19;100.00
43707;BME280;61348;53.392;-6.248;2024-02-21T12:05:04;98571.47;;;12.23;100.00
43707;BME280;61348;53.392;-6.248;2024-02-21T12:07:32;98572.25;;;12.23;100.00
43707;BME280;61348;53.392;-6.248;2024-02-21T12:10:00;98577.84;;;12.20;100.00
43707;BME280;61348;53.392;-6.248;2024-02-21T12:12:27;98578.66;;;12.17;100.00
43707;BME280;61348;53.392;-6.248;2024-02-21T12:14:56;98567.56;;;12.17;100.00
43707;BME280;61348;53.392;-6.248;2024-02-21T12:17:26;98568.38;;;12.14;100.00
43707;BME280;61348;53.392;-6.248;2024-02-21T12:19:53;98590.97;;;12.12;100.00
43707;BME280;61348;53.392;-6.248;2024-02-21T12:22:21;98573.97;;;12.07;100.00
43707;BME280;61348;53.392;-6.248;2024-02-21T12:24:48;98580.34;;;12.04;100.00
43707;BME280;61348;53.392;-6.248;2024-02-21T12:27:16;98584.31;;;11.99;100.00
43707;BME280;61348;53.392;-6.248;2024-02-21T12:29:43;98589.13;;;11.92;100.00
43707;BME280;61348;53.392;-6.248;2024-02-21T12:32:10;98580.41;;;11.93;100.00
43707;BME280;61348;53.392;-6.248;2024-02-21T12:34:38;98570.09;;;11.94;100.00
43707;BME280;61348;53.392;-6.248;2024-02-21T12:37:22;98574.06;;;11.93;100.00
43707;BME280;61348;53.392;-6.248;2024-02-21T12:39:51;98585.56;;;11.91;100.00
43707;BME280;61348;53.392;-6.248;2024-02-21T12:42:19;98591.50;;;11.93;100.00
43707;BME280;61348;53.392;-6.248;2024-02-21T12:44:46;98572.09;;;11.93;100.00
43707;BME280;61348;53.392;-6.248;2024-02-21T12:47:13;98598.59;;;11.94;100.00
43707;BME280;61348;53.392;-6.248;2024-02-21T12:49:41;98593.03;;;11.98;100.00
43707;BME280;61348;53.392;-6.248;2024-02-21T12:52:12;98588.59;;;12.11;100.00
43707;BME280;61348;53.392;-6.248;2024-02-21T12:54:40;98606.31;;;12.24;100.00
43707;BME280;61348;53.392;-6.248;2024-02-21T12:57:09;98617.75;;;12.33;100.00